Time;durP1;ratioP1;P1;durP2;ratioP2;P2;SDS_P1;SDS_P2;PMS_P1;PMS_P2;Temp;Humidity;BMP_temperature;BMP_pressure;BME280_temperature;BME280_humidity;BME280_pressure;Samples;Min_cycle;Max_cycle;Signal;HPM_P1;HPM_P2
2021/10/28 00:14:29;;;;;;;25.70;13.15;;;;;;;-141.50;100.00;63355.56;4914816;29;20398;-82
2021/10/28 00:16:58;;;;;;;26.27;13.98;;;;;;;-141.50;100.00;63355.56;4898485;29;20048;-82
2021/10/28 00:19:28;;;;;;;25.33;13.15;;;;;;;-141.50;100.00;63355.56;4899136;29;20111;-82
2021/10/28 00:21:55;;;;;;;25.20;13.32;;;;;;;-141.50;100.00;63355.56;4901618;29;20056;-82
2021/10/28 00:24:23;;;;;;;22.83;12.57;;;;;;;-141.50;100.00;63355.56;4902557;29;20048;-82
2021/10/28 00:26:50;;;;;;;24.95;12.95;;;;;;;-141.50;100.00;63355.56;4902097;29;20113;-81
2021/10/28 00:29:18;;;;;;;23.02;12.85;;;;;;;-141.50;100.00;63355.56;4902230;29;20481;-81
2021/10/28 00:31:47;;;;;;;22.00;12.40;;;;;;;-141.50;100.00;63355.56;4903080;29;20111;-82
2021/10/28 00:34:15;;;;;;;23.80;13.18;;;;;;;-141.50;100.00;63355.56;4901570;29;20067;-81
2021/10/28 00:36:46;;;;;;;27.33;13.85;;;;;;;-141.50;100.00;63355.56;4900779;29;20254;-81
2021/10/28 00:39:13;;;;;;;23.30;13.38;;;;;;;-141.50;100.00;63355.56;4901539;29;20052;-81
2021/10/28 00:41:40;;;;;;;23.50;13.38;;;;;;;-141.50;100.00;63355.56;4899326;29;20103;-81
2021/10/28 00:44:10;;;;;;;24.75;13.05;;;;;;;-141.50;100.00;63355.56;4901052;29;20052;-81
2021/10/28 00:46:40;;;;;;;26.67;14.20;;;;;;;-141.50;100.00;63355.56;4901718;29;20079;-81
2021/10/28 00:49:09;;;;;;;26.40;13.60;;;;;;;-141.50;100.00;63355.56;4901512;29;20082;-82
2021/10/28 00:51:38;;;;;;;23.70;13.73;;;;;;;-141.50;100.00;63355.56;4899640;29;20517;-82
2021/10/28 00:54:06;;;;;;;24.92;14.30;;;;;;;-141.50;100.00;63355.56;4900979;29;20521;-81
2021/10/28 00:56:33;;;;;;;24.20;13.38;;;;;;;-141.50;100.00;63355.56;4899426;29;20116;-83
2021/10/28 00:59:01;;;;;;;24.38;13.82;;;;;;;-141.50;100.00;63355.56;4886414;29;20525;-81
2021/10/28 01:01:29;;;;;;;25.42;13.32;;;;;;;-141.50;100.00;63355.56;4901030;29;20047;-82
2021/10/28 01:03:57;;;;;;;23.80;13.13;;;;;;;-141.50;100.00;63355.56;4900056;29;20051;-81
2021/10/28 01:06:24;;;;;;;25.52;13.73;;;;;;;-141.50;100.00;63355.56;4897840;29;20155;-81
2021/10/28 01:08:51;;;;;;;27.77;14.40;;;;;;;-141.50;100.00;63355.56;4900798;29;20480;-81
2021/10/28 01:11:19;;;;;;;27.48;13.68;;;;;;;-141.50;100.00;63355.56;4900357;29;20056;-82
2021/10/28 01:13:46;;;;;;;24.35;14.35;;;;;;;-141.50;100.00;63355.56;4901784;29;20143;-82
2021/10/28 01:16:15;;;;;;;26.60;14.02;;;;;;;-141.50;100.00;63355.56;4901685;29;20044;-81
2021/10/28 01:18:42;;;;;;;25.67;14.32;;;;;;;-141.50;100.00;63355.56;4917381;29;20120;-81
2021/10/28 01:21:09;;;;;;;27.90;15.82;;;;;;;-141.50;100.00;63355.56;4899667;29;20099;-82
2021/10/28 01:23:40;;;;;;;28.70;15.35;;;;;;;-141.50;100.00;63355.56;4900598;29;20433;-82
2021/10/28 01:26:10;;;;;;;28.13;14.88;;;;;;;-141.50;100.00;63355.56;4915163;29;20048;-83
2021/10/28 01:28:40;;;;;;;28.10;16.00;;;;;;;-141.50;100.00;63355.56;4908357;29;20123;-85
2021/10/28 01:31:09;;;;;;;28.23;15.63;;;;;;;-141.50;100.00;63355.56;4908375;29;20520;-82
2021/10/28 01:33:39;;;;;;;30.65;15.35;;;;;;;-141.50;100.00;63355.56;4907290;29;20052;-82
2021/10/28 01:36:06;;;;;;;29.13;16.08;;;;;;;-141.50;100.00;63355.56;4901702;29;20067;-83
2021/10/28 01:38:37;;;;;;;28.40;15.18;;;;;;;-141.50;100.00;63355.56;4885511;29;20071;-83
2021/10/28 01:41:04;;;;;;;27.20;15.70;;;;;;;-141.50;100.00;63355.56;4882424;29;20104;-84
2021/10/28 01:43:34;;;;;;;28.00;15.10;;;;;;;-141.50;100.00;63355.56;4884399;29;20053;-81
2021/10/28 01:46:01;;;;;;;31.70;15.43;;;;;;;-141.50;100.00;63355.56;4885410;29;20464;-82
2021/10/28 01:48:28;;;;;;;28.92;16.80;;;;;;;-141.50;100.00;63355.56;4883405;29;20124;-82
2021/10/28 01:50:55;;;;;;;29.75;15.80;;;;;;;-141.50;100.00;63355.56;4881005;29;20144;-81
2021/10/28 01:53:22;;;;;;;33.20;17.13;;;;;;;-141.50;100.00;63355.56;4882649;29;20522;-81
2021/10/28 01:55:49;;;;;;;29.55;16.13;;;;;;;-141.50;100.00;63355.56;4882160;29;20153;-82
2021/10/28 01:58:21;;;;;;;31.23;15.77;;;;;;;-141.50;100.00;63355.56;4883067;29;20130;-82
2021/10/28 02:00:50;;;;;;;27.20;14.95;;;;;;;-141.50;100.00;63355.56;4882469;29;20526;-82
2021/10/28 02:03:17;;;;;;;29.40;15.73;;;;;;;-141.50;100.00;63355.56;4881673;29;20052;-82
2021/10/28 02:05:45;;;;;;;30.17;15.45;;;;;;;-141.50;100.00;63355.56;4881416;29;20049;-81
2021/10/28 02:08:11;;;;;;;26.05;14.57;;;;;;;-141.50;100.00;63355.56;4881399;29;20048;-83
2021/10/28 02:10:38;;;;;;;30.55;16.33;;;;;;;-141.50;100.00;63355.56;4882795;29;20085;-83
2021/10/28 02:13:06;;;;;;;29.63;14.75;;;;;;;-141.50;100.00;63355.56;4881873;29;20049;-82
2021/10/28 02:15:33;;;;;;;31.90;15.77;;;;;;;-141.50;100.00;63355.56;4898287;29;20104;-83
2021/10/28 02:18:00;;;;;;;30.52;15.93;;;;;;;-141.50;100.00;63355.56;4898052;29;20150;-82
2021/10/28 02:20:27;;;;;;;30.70;15.48;;;;;;;-141.50;100.00;63355.56;4898912;29;20588;-80
2021/10/28 02:22:54;;;;;;;32.33;15.98;;;;;;;-141.50;100.00;63355.56;4912555;29;20058;-80
2021/10/28 02:25:21;;;;;;;27.85;15.25;;;;;;;-141.50;100.00;63355.56;4899658;29;20058;-81
2021/10/28 02:27:48;;;;;;;24.08;13.07;;;;;;;-141.50;100.00;63355.56;4897169;29;20056;-80
2021/10/28 02:30:16;;;;;;;29.08;15.10;;;;;;;-141.50;100.00;63355.56;4898392;29;20143;-80
2021/10/28 02:32:45;;;;;;;26.73;13.65;;;;;;;-141.50;100.00;63355.56;4897656;29;20484;-80
2021/10/28 02:35:12;;;;;;;24.08;14.63;;;;;;;-141.50;100.00;63355.56;4913486;29;20076;-80
2021/10/28 02:37:38;;;;;;;25.88;13.55;;;;;;;-141.50;100.00;63355.56;4896058;29;20123;-79
2021/10/28 02:40:06;;;;;;;26.98;14.40;;;;;;;-141.50;100.00;63355.56;4913705;29;20122;-79
2021/10/28 02:42:34;;;;;;;28.67;14.63;;;;;;;-141.50;100.00;63355.56;4896796;29;20124;-80
2021/10/28 02:45:01;;;;;;;24.35;13.90;;;;;;;-141.50;100.00;63355.56;4898609;29;20049;-81
2021/10/28 02:47:29;;;;;;;24.38;14.27;;;;;;;-141.50;100.00;63355.56;4897160;29;20513;-79
2021/10/28 02:49:57;;;;;;;23.58;13.63;;;;;;;-141.50;100.00;63355.56;4898084;29;20147;-80
2021/10/28 02:52:24;;;;;;;24.35;14.60;;;;;;;-141.50;100.00;63355.56;4896484;29;20119;-80
2021/10/28 02:54:52;;;;;;;29.00;15.48;;;;;;;-141.50;100.00;63355.56;4898452;29;20090;-80
2021/10/28 02:57:19;;;;;;;30.10;16.15;;;;;;;-141.50;100.00;63355.56;4897085;29;20090;-81
2021/10/28 02:59:51;;;;;;;28.70;15.57;;;;;;;-141.50;100.00;63355.56;4896791;29;20080;-81
2021/10/28 03:02:18;;;;;;;27.65;14.20;;;;;;;-141.50;100.00;63355.56;4894559;29;20082;-80
2021/10/28 03:04:45;;;;;;;24.23;14.05;;;;;;;-141.50;100.00;63355.56;4894538;29;20052;-81
2021/10/28 03:07:11;;;;;;;22.98;13.05;;;;;;;-141.50;100.00;63355.56;4894024;29;20158;-82
2021/10/28 03:09:38;;;;;;;20.98;12.65;;;;;;;-141.50;100.00;63355.56;4886468;29;20056;-83
2021/10/28 03:12:06;;;;;;;24.48;12.40;;;;;;;-141.50;100.00;63355.56;4899227;29;20070;-81
2021/10/28 03:14:56;;;;;;;22.52;12.50;;;;;;;-141.50;100.00;63355.56;4900541;29;20192;-82
2021/10/28 03:17:37;;;;;;;20.00;11.52;;;;;;;-141.50;100.00;63355.56;4896375;29;20080;-82
2021/10/28 03:27:47;;;;;;;31.08;15.40;;;;;;;-141.50;100.00;63355.56;4893883;29;20052;-80
2021/10/28 03:30:14;;;;;;;26.20;13.77;;;;;;;-141.50;100.00;63355.56;4894883;29;20062;-81
2021/10/28 03:32:41;;;;;;;24.58;12.90;;;;;;;-141.50;100.00;63355.56;4879080;29;20056;-81
2021/10/28 03:35:12;;;;;;;22.55;13.27;;;;;;;-141.50;100.00;63355.56;4895674;29;20048;-81
2021/10/28 04:21:35;;;;;;;26.52;12.57;;;;;;;-141.50;100.00;63355.56;4918583;29;20044;-80
2021/10/28 04:29:34;;;;;;;26.20;13.10;;;;;;;-141.50;100.00;63355.56;4922938;29;20040;-79
2021/10/28 04:32:03;;;;;;;29.00;13.02;;;;;;;-141.50;100.00;63355.56;4921695;29;20044;-79
2021/10/28 04:34:30;;;;;;;23.33;12.40;;;;;;;-141.50;100.00;63355.56;4916491;29;20052;-78
2021/10/28 04:36:56;;;;;;;21.55;12.60;;;;;;;-141.50;100.00;63355.56;4916468;29;20044;-78
2021/10/28 04:39:23;;;;;;;22.85;13.20;;;;;;;-141.50;100.00;63355.56;4902527;29;20051;-80
2021/10/28 04:41:50;;;;;;;25.77;13.25;;;;;;;-141.50;100.00;63355.56;4917331;29;20044;-79
2021/10/28 04:44:16;;;;;;;27.73;14.05;;;;;;;-141.50;100.00;63355.56;4943116;23;20464;-79
2021/10/28 04:46:43;;;;;;;142.43;44.65;;;;;;;-141.50;100.00;63355.56;4902804;29;20078;-79
2021/10/28 04:49:10;;;;;;;133.32;41.95;;;;;;;-141.50;100.00;63355.56;4903401;29;20475;-78
2021/10/28 04:51:40;;;;;;;82.20;29.30;;;;;;;-141.50;100.00;63355.56;4923929;29;20116;-78
2021/10/28 04:54:09;;;;;;;103.72;37.83;;;;;;;-141.50;100.00;63355.56;4931987;29;20099;-79
2021/10/28 04:56:36;;;;;;;32.35;15.60;;;;;;;-141.50;100.00;63355.56;4912628;29;20146;-78
2021/10/28 04:59:03;;;;;;;37.92;16.63;;;;;;;-141.50;100.00;63355.56;4915127;29;20070;-78
2021/10/28 05:01:30;;;;;;;52.17;21.55;;;;;;;-141.50;100.00;63355.56;4928551;29;20130;-78
2021/10/28 05:03:58;;;;;;;51.03;21.65;;;;;;;-141.50;100.00;63355.56;4903528;29;20102;-79
2021/10/28 05:06:25;;;;;;;42.75;17.55;;;;;;;-141.50;100.00;63355.56;4899687;29;20166;-78
2021/10/28 05:08:52;;;;;;;42.72;19.45;;;;;;;-141.50;100.00;63355.56;4903423;29;20051;-78
2021/10/28 05:11:20;;;;;;;39.00;17.50;;;;;;;-141.50;100.00;63355.56;4900284;29;20162;-78
2021/10/28 05:13:47;;;;;;;41.00;17.92;;;;;;;-141.50;100.00;63355.56;4901532;29;20393;-79
2021/10/28 05:16:14;;;;;;;40.65;17.65;;;;;;;-141.50;100.00;63355.56;4901904;29;20474;-78
2021/10/28 05:18:41;;;;;;;40.13;18.30;;;;;;;-141.50;100.00;63355.56;4902419;29;20075;-78
2021/10/28 05:21:10;;;;;;;40.97;18.00;;;;;;;-141.50;100.00;63355.56;4904708;29;20110;-79
2021/10/28 05:23:38;;;;;;;40.65;17.67;;;;;;;-141.50;100.00;63355.56;4911775;29;20174;-79
2021/10/28 05:26:07;;;;;;;40.63;18.08;;;;;;;-141.50;100.00;63355.56;4912791;29;20051;-77
2021/10/28 05:28:34;;;;;;;38.35;17.60;;;;;;;-141.50;100.00;63355.56;4929884;29;20623;-78
2021/10/28 05:31:01;;;;;;;34.90;15.82;;;;;;;-141.50;100.00;63355.56;4915952;29;20048;-80
2021/10/28 05:33:32;;;;;;;36.95;15.57;;;;;;;-141.50;100.00;63355.56;4916634;29;20083;-79
2021/10/28 05:35:59;;;;;;;55.03;21.13;;;;;;;-141.50;100.00;63355.56;4928427;29;20457;-79
2021/10/28 05:38:25;;;;;;;101.93;34.72;;;;;;;-141.50;100.00;63355.56;4925437;29;20052;-79
2021/10/28 05:40:52;;;;;;;123.75;38.75;;;;;;;-141.50;100.00;63355.56;4908966;29;20178;-79
2021/10/28 05:43:19;;;;;;;128.38;41.75;;;;;;;-141.50;100.00;63355.56;4905186;29;20051;-77
2021/10/28 05:45:47;;;;;;;120.22;39.10;;;;;;;-141.50;100.00;63355.56;4904831;29;20142;-80
2021/10/28 05:48:15;;;;;;;106.40;37.55;;;;;;;-141.50;100.00;63355.56;4902733;29;20130;-77
2021/10/28 05:50:43;;;;;;;98.18;34.25;;;;;;;-141.50;100.00;63355.56;4917454;29;20047;-78
2021/10/28 05:53:10;;;;;;;81.10;29.08;;;;;;;-141.50;100.00;63355.56;4901159;29;20047;-79
2021/10/28 05:55:37;;;;;;;71.93;27.55;;;;;;;-141.50;100.00;63355.56;4917219;29;20057;-79
2021/10/28 05:58:04;;;;;;;91.05;31.95;;;;;;;-141.50;100.00;63355.56;4901037;29;20094;-78
2021/10/28 06:00:31;;;;;;;76.85;29.27;;;;;;;-141.50;100.00;63355.56;4902755;29;20051;-79
2021/10/28 06:02:58;;;;;;;80.03;31.17;;;;;;;-141.50;100.00;63355.56;4901950;29;20055;-79
2021/10/28 06:05:25;;;;;;;78.53;30.38;;;;;;;-141.50;100.00;63355.56;4905046;29;20146;-77
2021/10/28 06:07:53;;;;;;;83.07;32.58;;;;;;;-141.50;100.00;63355.56;4902517;29;20138;-78
2021/10/28 06:10:19;;;;;;;79.47;31.05;;;;;;;-141.50;100.00;63355.56;4902271;29;20055;-78
2021/10/28 06:12:50;;;;;;;74.95;29.25;;;;;;;-141.50;100.00;63355.56;4901211;29;20114;-79
2021/10/28 06:15:17;;;;;;;85.18;32.70;;;;;;;-141.50;100.00;63355.56;4903175;29;20079;-79
2021/10/28 06:20:32;;;;;;;67.18;25.60;;;;;;;-141.50;100.00;63355.56;4888182;29;20139;-79
2021/10/28 06:22:58;;;;;;;68.35;25.67;;;;;;;-141.50;100.00;63355.56;4914546;29;20040;-78
2021/10/28 06:25:25;;;;;;;67.43;26.90;;;;;;;-141.50;100.00;63355.56;4900500;29;20051;-79
2021/10/28 06:27:52;;;;;;;71.43;26.70;;;;;;;-141.50;100.00;63355.56;4899635;29;20150;-79
2021/10/28 06:30:18;;;;;;;62.72;25.58;;;;;;;-141.50;100.00;63355.56;4902826;29;20056;-78
2021/10/28 06:32:54;;;;;;;80.70;29.73;;;;;;;-141.50;100.00;63355.56;4901787;29;20048;-79
2021/10/28 06:35:21;;;;;;;71.47;27.73;;;;;;;-141.50;100.00;63355.56;4902214;29;20135;-79
2021/10/28 06:37:50;;;;;;;62.00;24.00;;;;;;;-141.50;100.00;63355.56;4900107;29;20142;-78
2021/10/28 06:40:20;;;;;;;57.80;22.70;;;;;;;-141.50;100.00;63355.56;4918022;29;20043;-79
2021/10/28 06:42:47;;;;;;;61.45;23.50;;;;;;;-141.50;100.00;63355.56;4900744;29;20109;-79
2021/10/28 06:45:15;;;;;;;55.78;21.95;;;;;;;-141.50;100.00;63355.56;4901621;29;20055;-79
2021/10/28 06:47:42;;;;;;;59.35;22.27;;;;;;;-141.50;100.00;63355.56;4900165;29;20058;-79
2021/10/28 06:50:14;;;;;;;56.53;21.77;;;;;;;-141.50;100.00;63355.56;4900800;29;20051;-79
2021/10/28 06:52:59;;;;;;;55.10;22.27;;;;;;;-141.50;100.00;63355.56;4899619;29;20048;-80
2021/10/28 07:03:27;;;;;;;37.63;17.17;;;;;;;-141.50;100.00;63355.56;4915936;29;20551;-79
2021/10/28 07:06:08;;;;;;;32.88;13.45;;;;;;;-141.50;100.00;63355.56;4901582;29;20162;-78
2021/10/28 07:09:03;;;;;;;29.55;13.57;;;;;;;-141.50;100.00;63355.56;4930286;29;20048;-79
2021/10/28 07:11:38;;;;;;;30.20;14.25;;;;;;;-141.50;100.00;63355.56;4928758;29;20516;-78
2021/10/28 07:14:10;;;;;;;34.45;15.82;;;;;;;-141.50;100.00;63355.56;4930248;29;20044;-79
2021/10/28 07:16:41;;;;;;;36.55;18.10;;;;;;;-141.50;100.00;63355.56;4916430;29;20043;-79
2021/10/28 07:19:20;;;;;;;43.67;18.70;;;;;;;-141.50;100.00;63355.56;4901224;29;20086;-79
2021/10/28 07:27:14;;;;;;;34.28;17.23;;;;;;;-141.50;100.00;63355.56;4915016;29;20114;-78
2021/10/28 08:18:32;;;;;;;;;;;;;;;-141.50;100.00;63355.56;4916580;29;20501;-78
2021/10/28 08:28:46;;;;;;;18.42;10.88;;;;;;;-141.50;100.00;63355.56;4916090;29;20058;-79
2021/10/28 08:31:16;;;;;;;18.52;9.82;;;;;;;-141.50;100.00;63355.56;4900939;29;20303;-79
2021/10/28 08:33:43;;;;;;;15.52;9.20;;;;;;;-141.50;100.00;63355.56;4898637;29;20104;-78
2021/10/28 08:36:11;;;;;;;16.80;9.20;;;;;;;-141.50;100.00;63355.56;4897122;29;20516;-79
2021/10/28 08:38:40;;;;;;;15.82;8.77;;;;;;;-141.50;100.00;63355.56;4919293;29;20075;-79
2021/10/28 08:41:10;;;;;;;16.77;8.35;;;;;;;-141.50;100.00;63355.56;4907238;29;20068;-79
2021/10/28 08:43:42;;;;;;;13.73;7.35;;;;;;;-141.50;100.00;63355.56;4909165;29;20044;-77
2021/10/28 08:46:11;;;;;;;13.05;7.32;;;;;;;-141.50;100.00;63355.56;4907800;29;20056;-79
2021/10/28 08:48:41;;;;;;;18.65;7.03;;;;;;;-141.50;100.00;63355.56;4908618;29;20052;-79
2021/10/28 09:24:40;;;;;;;11.57;4.47;;;;;;;-141.50;100.00;63355.56;4919039;29;20524;-78
2021/10/28 09:46:48;;;;;;;10.23;4.00;;;;;;;-141.50;100.00;63355.56;4917382;29;20406;-78
2021/10/28 09:52:17;;;;;;;10.05;4.20;;;;;;;-141.50;100.00;63355.56;4920436;29;20051;-78
2021/10/28 10:00:32;;;;;;;;;;;;;;;-141.50;100.00;63355.56;4918702;29;20069;-79
2021/10/28 10:03:08;;;;;;;9.27;3.85;;;;;;;-141.50;100.00;63355.56;4917457;29;19922;-78
2021/10/28 10:05:37;;;;;;;7.03;3.92;;;;;;;-141.50;100.00;63355.56;4917346;29;20103;-78
2021/10/28 10:08:07;;;;;;;9.73;3.97;;;;;;;-141.50;100.00;63355.56;4901682;29;20054;-78
2021/10/28 10:10:34;;;;;;;7.47;3.78;;;;;;;-141.50;100.00;63355.56;4903103;29;20374;-79
2021/10/28 10:13:02;;;;;;;6.70;3.72;;;;;;;-141.50;100.00;63355.56;4897200;29;20055;-78
2021/10/28 10:15:29;;;;;;;6.50;3.40;;;;;;;-141.50;100.00;63355.56;4933856;29;20043;-78
2021/10/28 10:18:03;;;;;;;5.13;3.38;;;;;;;-141.50;100.00;63355.56;4932404;29;20378;-77
2021/10/28 10:20:37;;;;;;;6.57;3.60;;;;;;;-141.50;100.00;63355.56;4933329;29;20048;-77
2021/10/28 11:19:31;;;;;;;4.10;1.45;;;;;;;-141.50;100.00;63355.56;4894382;29;20495;-83
2021/10/28 11:30:54;;;;;;;4.68;1.35;;;;;;;-141.50;100.00;63355.56;4897888;29;20052;-83
2021/10/28 12:44:18;;;;;;;3.95;1.63;;;;;;;-141.50;100.00;63355.56;4898126;29;20411;-81
2021/10/28 12:50:03;;;;;;;2.78;1.60;;;;;;;-141.50;100.00;63355.56;4900675;29;20084;-80
2021/10/28 14:38:45;;;;;;;9.60;4.57;;;;;;;-141.50;100.00;63355.56;4901461;29;20096;-82
2021/10/28 15:30:18;;;;;;;14.10;6.78;;;;;;;-141.50;100.00;63355.56;4884445;29;20530;-83
2021/10/28 16:23:08;;;;;;;17.70;9.67;;;;;;;-141.50;100.00;63355.56;4892893;29;20616;-83
2021/10/28 16:25:35;;;;;;;18.15;10.18;;;;;;;-141.50;100.00;63355.56;4889186;29;20048;-84
2021/10/28 16:28:04;;;;;;;18.08;10.35;;;;;;;-141.50;100.00;63355.56;4889581;29;20052;-84
2021/10/28 16:30:31;;;;;;;20.88;10.68;;;;;;;-141.50;100.00;63355.56;4903716;29;20092;-87
2021/10/28 16:32:58;;;;;;;18.73;10.90;;;;;;;-141.50;100.00;63355.56;4899872;29;20060;-83
2021/10/28 16:35:25;;;;;;;19.83;10.55;;;;;;;-141.50;100.00;63355.56;4910883;29;20048;-86
2021/10/28 16:37:52;;;;;;;22.33;11.57;;;;;;;-141.50;100.00;63355.56;4872777;29;20060;-84
2021/10/28 16:40:20;;;;;;;21.88;11.20;;;;;;;-141.50;100.00;63355.56;4880244;29;20132;-84
2021/10/28 16:42:47;;;;;;;20.10;11.25;;;;;;;-141.50;100.00;63355.56;4871567;29;20072;-84
2021/10/28 16:45:13;;;;;;;20.85;11.50;;;;;;;-141.50;100.00;63355.56;4859043;29;20080;-85
2021/10/28 16:47:40;;;;;;;24.48;11.88;;;;;;;-141.50;100.00;63355.56;4919593;23;20052;-83
2021/10/28 16:50:08;;;;;;;23.23;12.25;;;;;;;-141.50;100.00;63355.56;4882162;29;20058;-81
2021/10/28 16:52:35;;;;;;;22.25;11.88;;;;;;;-141.50;100.00;63355.56;4906125;23;20064;-77
2021/10/28 16:55:03;;;;;;;22.20;12.52;;;;;;;-141.50;100.00;63355.56;4882779;29;20048;-78
2021/10/28 16:57:30;;;;;;;27.52;15.90;;;;;;;-141.50;100.00;63355.56;4894861;29;20048;-77
2021/10/28 16:59:59;;;;;;;30.50;15.40;;;;;;;-141.50;100.00;63355.56;4876908;29;20040;-77
2021/10/28 17:02:26;;;;;;;24.58;14.32;;;;;;;-141.50;100.00;63355.56;4906267;29;20131;-77
2021/10/28 17:04:54;;;;;;;22.63;12.65;;;;;;;-141.50;100.00;63355.56;4879251;29;20056;-77
2021/10/28 17:07:21;;;;;;;26.73;13.80;;;;;;;-141.50;100.00;63355.56;4877265;29;20052;-76
2021/10/28 17:09:49;;;;;;;21.85;12.43;;;;;;;-141.50;100.00;63355.56;4894520;29;20056;-78
2021/10/28 17:12:16;;;;;;;21.70;12.65;;;;;;;-141.50;100.00;63355.56;4900204;29;20136;-78
2021/10/28 17:14:43;;;;;;;24.08;13.75;;;;;;;-141.50;100.00;63355.56;4891619;29;20057;-78
2021/10/28 17:17:11;;;;;;;28.55;14.32;;;;;;;-141.50;100.00;63355.56;4879618;29;20080;-77
2021/10/28 17:19:41;;;;;;;23.40;13.43;;;;;;;-141.50;100.00;63355.56;4880346;29;20200;-78
2021/10/28 17:22:08;;;;;;;25.20;14.05;;;;;;;-141.50;100.00;63355.56;4878971;29;20064;-76
2021/10/28 17:24:39;;;;;;;28.77;16.38;;;;;;;-141.50;100.00;63355.56;4879576;29;20052;-78
2021/10/28 17:27:06;;;;;;;34.35;18.88;;;;;;;-141.50;100.00;63355.56;4895457;29;20060;-78
2021/10/28 17:29:33;;;;;;;31.67;18.08;;;;;;;-141.50;100.00;63355.56;4871177;29;20080;-78
2021/10/28 17:32:00;;;;;;;23.00;13.63;;;;;;;-141.50;100.00;63355.56;4871716;29;20052;-77
2021/10/28 17:34:29;;;;;;;27.90;15.35;;;;;;;-141.50;100.00;63355.56;4866280;29;20111;-78
2021/10/28 17:36:56;;;;;;;28.25;14.93;;;;;;;-141.50;100.00;63355.56;4864232;29;20052;-77
2021/10/28 17:39:26;;;;;;;27.40;14.30;;;;;;;-141.50;100.00;63355.56;4867090;29;20386;-77
2021/10/28 17:41:58;;;;;;;26.58;14.55;;;;;;;-141.50;100.00;63355.56;4882040;29;20051;-78
2021/10/28 17:44:40;;;;;;;25.67;13.57;;;;;;;-141.50;100.00;63355.56;4866676;29;20259;-79
2021/10/28 17:47:08;;;;;;;27.73;13.88;;;;;;;-141.50;100.00;63355.56;4881296;29;20052;-79
2021/10/28 17:49:37;;;;;;;25.90;13.68;;;;;;;-141.50;100.00;63355.56;4883313;29;20068;-76
2021/10/28 17:52:06;;;;;;;25.55;14.02;;;;;;;-141.50;100.00;63355.56;4881390;29;20097;-78
2021/10/28 17:54:32;;;;;;;23.65;13.50;;;;;;;-141.50;100.00;63355.56;4864603;29;20049;-78
2021/10/28 17:56:59;;;;;;;25.67;14.00;;;;;;;-141.50;100.00;63355.56;4879074;29;20101;-77
2021/10/28 17:59:26;;;;;;;27.50;14.13;;;;;;;-141.50;100.00;63355.56;4880478;29;20052;-77
2021/10/28 18:01:53;;;;;;;24.15;13.60;;;;;;;-141.50;100.00;63355.56;4883389;29;20125;-78
2021/10/28 18:04:21;;;;;;;31.17;15.60;;;;;;;-141.50;100.00;63355.56;4895299;29;20067;-76
2021/10/28 18:06:53;;;;;;;27.35;14.73;;;;;;;-141.50;100.00;63355.56;4887196;29;20129;-78
2021/10/28 18:09:23;;;;;;;28.33;14.48;;;;;;;-141.50;100.00;63355.56;4869484;29;20341;-77
2021/10/28 18:11:57;;;;;;;29.42;14.95;;;;;;;-141.50;100.00;63355.56;4871277;29;20573;-76
2021/10/28 18:14:28;;;;;;;29.27;15.30;;;;;;;-141.50;100.00;63355.56;4857311;29;20057;-76
2021/10/28 18:16:57;;;;;;;27.17;14.50;;;;;;;-141.50;100.00;63355.56;4873154;29;20049;-77
2021/10/28 18:19:24;;;;;;;24.40;13.18;;;;;;;-141.50;100.00;63355.56;4884002;29;20052;-78
2021/10/28 18:21:55;;;;;;;23.27;13.45;;;;;;;-141.50;100.00;63355.56;4873376;29;20056;-77
2021/10/28 18:24:23;;;;;;;25.42;13.10;;;;;;;-141.50;100.00;63355.56;4875695;29;20473;-77
2021/10/28 18:26:50;;;;;;;30.27;13.95;;;;;;;-141.50;100.00;63355.56;4890255;29;20144;-77
2021/10/28 18:29:18;;;;;;;33.05;14.18;;;;;;;-141.50;100.00;63355.56;4871349;29;20049;-77
2021/10/28 18:31:45;;;;;;;26.17;14.13;;;;;;;-141.50;100.00;63355.56;4866491;29;20049;-77
2021/10/28 18:34:14;;;;;;;25.85;13.65;;;;;;;-141.50;100.00;63355.56;4863558;29;20872;-77
2021/10/28 18:36:41;;;;;;;25.65;14.40;;;;;;;-141.50;100.00;63355.56;4879220;29;20127;-76
2021/10/28 18:39:11;;;;;;;30.45;14.00;;;;;;;-141.50;100.00;63355.56;4879024;29;20067;-77
2021/10/28 18:41:41;;;;;;;25.67;14.27;;;;;;;-141.50;100.00;63355.56;4865375;29;20147;-77
2021/10/28 18:44:09;;;;;;;25.08;13.80;;;;;;;-141.50;100.00;63355.56;4871559;29;20143;-76
2021/10/28 18:46:37;;;;;;;23.67;13.65;;;;;;;-141.50;100.00;63355.56;4885564;29;20481;-77
2021/10/28 18:49:03;;;;;;;26.25;14.10;;;;;;;-141.50;100.00;63355.56;4887267;29;20041;-77
2021/10/28 18:51:32;;;;;;;27.73;14.98;;;;;;;-141.50;100.00;63355.56;4886461;29;20518;-77
2021/10/28 18:53:59;;;;;;;28.55;15.82;;;;;;;-141.50;100.00;63355.56;4875919;29;20514;-76
2021/10/28 18:56:32;;;;;;;29.50;15.88;;;;;;;-141.50;100.00;63355.56;4866978;29;20051;-76
2021/10/28 18:59:00;;;;;;;28.60;16.20;;;;;;;-141.50;100.00;63355.56;4873651;29;20067;-78
2021/10/28 19:01:28;;;;;;;29.60;16.33;;;;;;;-141.50;100.00;63355.56;4884809;29;20059;-76
2021/10/28 19:03:55;;;;;;;29.77;15.88;;;;;;;-141.50;100.00;63355.56;4865904;29;20072;-76
2021/10/28 19:06:22;;;;;;;29.00;16.98;;;;;;;-141.50;100.00;63355.56;4869493;29;20049;-76
2021/10/28 19:08:49;;;;;;;28.20;15.73;;;;;;;-141.50;100.00;63355.56;4862029;29;20063;-78
2021/10/28 19:11:17;;;;;;;31.48;16.90;;;;;;;-141.50;100.00;63355.56;4869653;29;20059;-76
2021/10/28 19:13:45;;;;;;;29.55;16.17;;;;;;;-141.50;100.00;63355.56;4855281;29;20469;-77
2021/10/28 19:16:13;;;;;;;31.45;16.65;;;;;;;-141.50;100.00;63355.56;4855886;29;20056;-76
2021/10/28 19:18:42;;;;;;;30.13;16.00;;;;;;;-141.50;100.00;63355.56;4887287;29;20128;-76
2021/10/28 19:21:10;;;;;;;30.38;15.98;;;;;;;-141.50;100.00;63355.56;4873839;29;20085;-77
2021/10/28 19:23:38;;;;;;;33.50;16.67;;;;;;;-141.50;100.00;63355.56;4879075;29;20064;-78
2021/10/28 19:26:06;;;;;;;32.97;17.05;;;;;;;-141.50;100.00;63355.56;4895231;29;20498;-77
2021/10/28 19:28:33;;;;;;;33.15;17.02;;;;;;;-141.50;100.00;63355.56;4862259;29;20058;-77
2021/10/28 19:31:08;;;;;;;36.75;18.63;;;;;;;-141.50;100.00;63355.56;4890668;29;20062;-76
2021/10/28 19:36:17;;;;;;;42.00;21.88;;;;;;;-141.50;100.00;63355.56;4889547;29;20052;-78
2021/10/28 19:38:54;;;;;;;46.78;25.17;;;;;;;-141.50;100.00;63355.56;4890828;29;20093;-79
2021/10/28 19:41:52;;;;;;;45.50;25.55;;;;;;;-141.50;100.00;63355.56;4865599;29;20153;-78
2021/10/28 19:47:12;;;;;;;47.92;24.35;;;;;;;-141.50;100.00;63355.56;4888023;29;20155;-77
2021/10/28 19:49:42;;;;;;;72.90;32.30;;;;;;;-141.50;100.00;63355.56;4908642;29;20104;-79
2021/10/28 19:52:13;;;;;;;73.88;32.35;;;;;;;-141.50;100.00;63355.56;4925786;29;20048;-77
2021/10/28 19:54:42;;;;;;;58.90;27.35;;;;;;;-141.50;100.00;63355.56;4910780;29;20056;-79
2021/10/28 19:57:20;;;;;;;66.10;30.95;;;;;;;-141.50;100.00;63355.56;4909482;29;20047;-78
2021/10/28 20:00:01;;;;;;;69.03;32.35;;;;;;;-141.50;100.00;63355.56;4906588;29;20052;-76
2021/10/28 20:02:49;;;;;;;67.30;30.58;;;;;;;-141.50;100.00;63355.56;4891668;29;20465;-77
2021/10/28 20:21:30;;;;;;;51.47;25.27;;;;;;;-141.50;100.00;63355.56;4887517;29;20510;-77
2021/10/28 20:23:57;;;;;;;47.90;24.65;;;;;;;-141.50;100.00;63355.56;4878713;29;20092;-79
2021/10/28 20:26:24;;;;;;;42.25;21.25;;;;;;;-141.50;100.00;63355.56;4876353;29;20068;-77
2021/10/28 20:28:53;;;;;;;40.78;21.70;;;;;;;-141.50;100.00;63355.56;4872005;29;20573;-78
2021/10/28 20:31:22;;;;;;;45.58;22.23;;;;;;;-141.50;100.00;63355.56;4872937;29;20052;-78
2021/10/28 20:34:10;;;;;;;37.97;19.88;;;;;;;-141.50;100.00;63355.56;4872543;29;20061;-78